Time;durP1;ratioP1;P1;durP2;ratioP2;P2;SDS_P1;SDS_P2;PMS_P1;PMS_P2;Temp;Humidity;BMP_temperature;BMP_pressure;BME280_temperature;BME280_humidity;BME280_pressure;Samples;Min_cycle;Max_cycle;Signal;HPM_P1;HPM_P2
2023/07/10 00:01:01;;;;;;;20.73;13.27;;;21.00;99.90;;;;;;5033785;28;20240;-77
2023/07/10 00:03:29;;;;;;;21.80;12.98;;;21.00;99.90;;;;;;5028497;28;20690;-75
2023/07/10 00:06:22;;;;;;;19.48;12.70;;;21.00;99.90;;;;;;5027729;28;20287;-80
2023/07/10 00:08:49;;;;;;;20.23;13.48;;;20.90;99.90;;;;;;5039869;28;20662;-75
2023/07/10 00:11:24;;;;;;;19.15;12.75;;;21.00;99.90;;;;;;5043378;28;20201;-76
2023/07/10 00:13:51;;;;;;;20.25;12.70;;;20.80;99.90;;;;;;5047161;28;20228;-77
2023/07/10 00:16:20;;;;;;;21.70;13.32;;;20.90;99.90;;;;;;5026164;28;20571;-77
2023/07/10 00:18:48;;;;;;;20.50;13.70;;;20.80;99.90;;;;;;5045487;28;20681;-77
2023/07/10 00:21:17;;;;;;;22.20;13.18;;;20.80;99.90;;;;;;5042992;28;20193;-77
2023/07/10 00:23:45;;;;;;;22.17;14.38;;;20.90;99.90;;;;;;5027218;28;20212;-78
2023/07/10 00:26:24;;;;;;;24.48;14.07;;;21.00;99.90;;;;;;5030934;28;20605;-76
2023/07/10 00:28:53;;;;;;;23.65;13.90;;;20.90;99.90;;;;;;5047798;28;20683;-80
2023/07/10 00:31:21;;;;;;;18.73;13.15;;;20.90;99.90;;;;;;5037520;28;20694;-79
2023/07/10 00:33:48;;;;;;;23.40;13.45;;;20.90;99.90;;;;;;5030418;28;20593;-77
2023/07/10 00:36:28;;;;;;;20.15;13.55;;;20.90;99.90;;;;;;5046469;28;20205;-76
2023/07/10 00:38:56;;;;;;;21.17;13.43;;;20.90;99.90;;;;;;5029278;28;20217;-77
2023/07/10 00:41:26;;;;;;;22.45;14.43;;;20.90;99.90;;;;;;5043665;28;20654;-76
2023/07/10 00:44:00;;;;;;;20.15;13.52;;;20.80;99.90;;;;;;5043126;28;20220;-75
2023/07/10 00:46:41;;;;;;;23.23;12.88;;;20.80;99.90;;;;;;5042917;28;20212;-78
2023/07/10 00:49:34;;;;;;;19.45;13.73;;;20.70;99.90;;;;;;5044732;28;20213;-76
2023/07/10 00:52:20;;;;;;;19.67;12.63;;;20.70;99.90;;;;;;5043398;28;20216;-77
2023/07/10 00:54:53;;;;;;;22.73;12.82;;;20.80;99.90;;;;;;5032458;28;20201;-78
2023/07/10 00:57:33;;;;;;;25.27;13.32;;;20.70;99.90;;;;;;5026928;28;20608;-78
2023/07/10 01:00:14;;;;;;;20.00;12.23;;;20.70;99.90;;;;;;5039533;28;20260;-79
2023/07/10 01:02:41;;;;;;;18.73;12.77;;;20.70;99.90;;;;;;5043664;28;20665;-77
2023/07/10 01:05:09;;;;;;;23.80;13.68;;;20.70;99.90;;;;;;5047330;28;20209;-76
2023/07/10 01:07:41;;;;;;;20.88;11.60;;;20.70;99.90;;;;;;5044505;28;20260;-77
2023/07/10 01:10:10;;;;;;;19.58;11.85;;;20.60;99.90;;;;;;5030020;28;20205;-79
2023/07/10 01:12:39;;;;;;;20.33;11.88;;;20.70;99.90;;;;;;5025936;28;20217;-76
2023/07/10 01:15:07;;;;;;;17.58;11.88;;;20.60;99.90;;;;;;5025066;28;20247;-76
2023/07/10 01:17:35;;;;;;;19.33;11.30;;;20.70;99.90;;;;;;5021500;28;20220;-77
2023/07/10 01:20:25;;;;;;;19.92;10.38;;;20.60;99.90;;;;;;5042614;28;20258;-77
2023/07/10 01:22:52;;;;;;;16.60;10.93;;;20.60;99.90;;;;;;5038124;28;20292;-78
2023/07/10 01:25:19;;;;;;;16.60;10.32;;;20.60;99.90;;;;;;5039399;28;20264;-77
2023/07/10 01:27:46;;;;;;;17.70;10.70;;;20.50;99.90;;;;;;5045006;28;20222;-76
2023/07/10 01:30:28;;;;;;;17.77;9.88;;;20.40;99.90;;;;;;5045142;28;20217;-76
2023/07/10 01:32:56;;;;;;;18.70;9.95;;;20.40;99.90;;;;;;5050418;28;20233;-78
2023/07/10 01:35:27;;;;;;;17.98;11.15;;;20.50;99.90;;;;;;5024740;28;20237;-78
2023/07/10 01:37:54;;;;;;;15.98;10.05;;;20.50;99.90;;;;;;5042656;28;20205;-77
2023/07/10 01:40:36;;;;;;;18.17;9.52;;;20.50;99.90;;;;;;5037673;28;20209;-77
2023/07/10 01:43:03;;;;;;;15.57;8.95;;;20.50;99.90;;;;;;5024380;28;20218;-78
2023/07/10 01:45:43;;;;;;;15.50;8.93;;;20.50;99.90;;;;;;5040089;28;20750;-78
2023/07/10 01:48:12;;;;;;;12.68;8.73;;;20.50;99.90;;;;;;5050054;28;20201;-78
2023/07/10 01:50:40;;;;;;;13.57;7.68;;;20.40;99.90;;;;;;5034046;28;20209;-77
2023/07/10 01:53:09;;;;;;;12.30;7.72;;;20.40;99.90;;;;;;5051205;28;20228;-76
2023/07/10 01:55:44;;;;;;;17.67;9.68;;;20.40;99.90;;;;;;5034112;28;20241;-80
2023/07/10 01:58:12;;;;;;;11.95;7.80;;;20.50;99.90;;;;;;5049208;28;20262;-78
2023/07/10 02:00:41;;;;;;;15.52;7.70;;;20.40;99.90;;;;;;5026660;28;20583;-78
2023/07/10 02:03:08;;;;;;;15.00;8.77;;;20.50;99.90;;;;;;5045230;28;20772;-78
2023/07/10 02:05:35;;;;;;;11.43;7.57;;;20.50;99.90;;;;;;5027565;28;20210;-77
2023/07/10 02:08:02;;;;;;;11.98;7.55;;;20.40;99.90;;;;;;5046836;28;20212;-76
2023/07/10 02:10:29;;;;;;;10.18;7.18;;;20.40;99.90;;;;;;5045908;28;20197;-77
2023/07/10 02:13:11;;;;;;;12.60;7.50;;;20.40;99.90;;;;;;5045188;28;20236;-77
2023/07/10 02:15:38;;;;;;;10.48;6.32;;;20.40;99.90;;;;;;5046663;28;20229;-78
2023/07/10 02:18:05;;;;;;;11.43;6.35;;;20.40;99.90;;;;;;5032208;28;20228;-77
2023/07/10 02:20:32;;;;;;;12.02;6.78;;;20.40;99.90;;;;;;5041646;28;20246;-76
2023/07/10 02:22:59;;;;;;;8.55;6.30;;;20.40;99.90;;;;;;5032010;28;20197;-78
2023/07/10 02:25:27;;;;;;;8.73;4.90;;;20.40;99.90;;;;;;5045347;28;20255;-77
2023/07/10 02:27:54;;;;;;;10.30;5.07;;;20.30;99.90;;;;;;5031728;28;20206;-78
2023/07/10 02:30:22;;;;;;;6.70;4.53;;;20.30;99.90;;;;;;5047495;28;20294;-77
2023/07/10 02:32:49;;;;;;;9.93;4.47;;;20.30;99.90;;;;;;5043904;28;20212;-76
2023/07/10 02:35:17;;;;;;;7.65;4.70;;;20.30;99.90;;;;;;5029995;28;20268;-78
2023/07/10 02:37:43;;;;;;;10.60;4.75;;;20.30;99.90;;;;;;5026482;28;20303;-77
2023/07/10 02:40:10;;;;;;;11.25;5.43;;;20.20;99.90;;;;;;5027001;28;20798;-78
2023/07/10 02:42:37;;;;;;;6.32;4.25;;;20.20;99.90;;;;;;5024691;28;20545;-76
2023/07/10 02:45:05;;;;;;;9.82;4.70;;;20.20;99.90;;;;;;5044926;28;20707;-79
2023/07/10 02:47:32;;;;;;;7.93;4.68;;;20.20;99.90;;;;;;5042274;28;20202;-78
2023/07/10 02:49:59;;;;;;;7.15;4.60;;;20.30;99.90;;;;;;5053377;28;20193;-80
2023/07/10 02:52:26;;;;;;;8.52;4.78;;;20.20;99.90;;;;;;5031257;28;20201;-77
2023/07/10 02:54:53;;;;;;;8.45;4.10;;;20.20;99.90;;;;;;5049665;28;20233;-77
2023/07/10 02:57:20;;;;;;;9.35;4.75;;;20.10;99.90;;;;;;5028097;28;20212;-77
2023/07/10 02:59:47;;;;;;;9.35;4.95;;;20.20;99.90;;;;;;5045839;28;20230;-78
2023/07/10 03:02:14;;;;;;;6.63;4.60;;;20.20;99.90;;;;;;5049491;28;20937;-77
2023/07/10 03:04:41;;;;;;;8.98;4.20;;;20.20;99.90;;;;;;5032292;28;20292;-77
2023/07/10 03:07:10;;;;;;;7.47;4.70;;;20.20;99.90;;;;;;5049047;28;20217;-77
2023/07/10 03:09:37;;;;;;;5.63;4.30;;;20.10;99.90;;;;;;5032618;28;20566;-77
2023/07/10 03:12:04;;;;;;;6.43;4.50;;;20.10;99.90;;;;;;5035036;28;20209;-77
2023/07/10 03:14:31;;;;;;;9.88;4.35;;;20.10;99.90;;;;;;5046547;28;20280;-78
2023/07/10 03:16:59;;;;;;;8.27;5.00;;;20.00;99.90;;;;;;5048749;28;20212;-77
2023/07/10 03:19:30;;;;;;;6.90;4.63;;;20.00;99.90;;;;;;5048009;28;20866;-77
2023/07/10 03:21:58;;;;;;;8.68;4.20;;;20.00;99.90;;;;;;5049487;28;20288;-78
2023/07/10 03:24:25;;;;;;;4.38;3.83;;;19.90;99.90;;;;;;5047933;28;20658;-76
2023/07/10 03:26:52;;;;;;;6.95;4.35;;;19.90;99.90;;;;;;5042417;28;20630;-77
2023/07/10 03:29:19;;;;;;;8.68;4.57;;;19.90;99.90;;;;;;5045851;28;20229;-77
2023/07/10 03:31:46;;;;;;;7.35;4.00;;;19.90;99.90;;;;;;5021700;28;20246;-76
2023/07/10 03:34:14;;;;;;;6.28;4.15;;;19.90;99.90;;;;;;5028550;28;20703;-78
2023/07/10 03:36:42;;;;;;;6.15;4.25;;;19.90;99.90;;;;;;5026239;28;20206;-78
2023/07/10 03:39:09;;;;;;;5.47;3.65;;;20.00;99.90;;;;;;5023331;28;20209;-79
2023/07/10 03:41:36;;;;;;;6.93;4.13;;;19.90;99.90;;;;;;5027533;28;20206;-77
2023/07/10 03:44:04;;;;;;;5.65;3.42;;;19.90;99.90;;;;;;5026312;28;20206;-75
2023/07/10 03:46:31;;;;;;;7.32;4.18;;;19.80;99.90;;;;;;5026076;28;20287;-77
2023/07/10 03:48:58;;;;;;;7.13;4.00;;;19.80;99.90;;;;;;5030454;28;20190;-77
2023/07/10 03:51:25;;;;;;;5.47;3.47;;;19.80;99.90;;;;;;5023537;28;20672;-77
2023/07/10 03:53:52;;;;;;;5.90;3.60;;;19.80;99.90;;;;;;5027363;28;20978;-77
2023/07/10 03:56:19;;;;;;;7.38;4.03;;;19.80;99.90;;;;;;5021780;28;20205;-77
2023/07/10 03:58:47;;;;;;;8.93;4.22;;;19.80;99.90;;;;;;5026663;28;20688;-77
2023/07/10 04:01:14;;;;;;;4.38;3.50;;;19.80;99.90;;;;;;5025766;28;20225;-78
2023/07/10 04:03:41;;;;;;;4.22;3.35;;;19.80;99.90;;;;;;5031375;28;20241;-78
2023/07/10 04:06:12;;;;;;;6.05;3.25;;;19.80;99.90;;;;;;5020883;28;20206;-80
2023/07/10 04:08:41;;;;;;;7.28;3.47;;;19.70;99.90;;;;;;5030522;28;20210;-78
2023/07/10 04:11:12;;;;;;;3.90;3.00;;;19.70;99.90;;;;;;5025369;28;20222;-77
2023/07/10 04:13:39;;;;;;;5.68;3.53;;;19.80;99.90;;;;;;5026299;28;20229;-78
2023/07/10 04:16:17;;;;;;;4.40;3.08;;;19.80;99.90;;;;;;5025426;28;20269;-77
2023/07/10 04:18:46;;;;;;;4.88;3.72;;;19.80;99.90;;;;;;5026127;28;20654;-78
2023/07/10 04:21:18;;;;;;;7.18;4.15;;;19.70;99.90;;;;;;5026770;28;20202;-78
2023/07/10 04:23:45;;;;;;;5.68;4.28;;;19.70;99.90;;;;;;5023888;28;20195;-78
2023/07/10 04:26:24;;;;;;;7.68;4.75;;;19.80;99.90;;;;;;5026770;28;20210;-77
2023/07/10 04:28:54;;;;;;;10.55;4.85;;;19.70;99.90;;;;;;5025075;28;20205;-77
2023/07/10 04:31:22;;;;;;;9.23;4.93;;;19.70;99.90;;;;;;5027560;28;20320;-78
2023/07/10 04:33:51;;;;;;;7.03;5.05;;;19.80;99.90;;;;;;5023993;28;20234;-79
2023/07/10 04:36:19;;;;;;;9.68;5.22;;;19.80;99.90;;;;;;5022470;28;20209;-78
2023/07/10 04:38:46;;;;;;;6.18;4.13;;;19.70;99.90;;;;;;5030099;28;20233;-77
2023/07/10 04:41:15;;;;;;;6.40;4.32;;;19.70;99.90;;;;;;5029530;28;20205;-78
2023/07/10 04:43:42;;;;;;;6.75;4.13;;;19.70;99.90;;;;;;5027179;28;20210;-77
2023/07/10 04:46:10;;;;;;;6.43;4.22;;;19.80;99.90;;;;;;5024340;28;20678;-80
2023/07/10 04:48:37;;;;;;;4.88;3.60;;;19.80;99.90;;;;;;5023256;28;20279;-76
2023/07/10 04:51:07;;;;;;;6.60;3.83;;;19.80;99.90;;;;;;5022293;28;20632;-77
2023/07/10 04:53:34;;;;;;;6.38;3.67;;;19.90;99.90;;;;;;5026328;28;20738;-77
2023/07/10 04:56:04;;;;;;;7.65;3.63;;;19.90;99.90;;;;;;5022137;28;20578;-76
2023/07/10 04:58:58;;;;;;;6.90;3.40;;;19.90;99.90;;;;;;5040120;28;20241;-77
2023/07/10 05:01:27;;;;;;;5.28;3.38;;;19.90;99.90;;;;;;5025121;28;20232;-77
2023/07/10 05:03:54;;;;;;;4.82;2.92;;;19.90;99.90;;;;;;5021872;28;20206;-76
2023/07/10 05:06:22;;;;;;;7.15;3.33;;;19.90;99.90;;;;;;5024169;28;20239;-76
2023/07/10 05:08:52;;;;;;;5.68;3.50;;;20.00;99.90;;;;;;5027990;28;20202;-77
2023/07/10 05:11:22;;;;;;;6.45;4.10;;;19.80;99.90;;;;;;5025327;28;20218;-77
2023/07/10 05:13:49;;;;;;;4.72;3.25;;;20.00;99.90;;;;;;5025336;28;20649;-77
2023/07/10 05:16:16;;;;;;;7.63;4.00;;;20.10;99.90;;;;;;5023511;28;20690;-77
2023/07/10 05:18:43;;;;;;;5.43;3.38;;;19.90;99.90;;;;;;5020967;28;20218;-76
2023/07/10 05:21:10;;;;;;;5.15;2.95;;;19.90;99.90;;;;;;5027852;28;20202;-78
2023/07/10 05:23:37;;;;;;;4.97;3.58;;;20.00;99.90;;;;;;5019444;28;20207;-77
2023/07/10 05:26:10;;;;;;;7.28;3.72;;;20.00;99.90;;;;;;5024174;28;20214;-75
2023/07/10 05:28:37;;;;;;;6.63;3.70;;;20.00;99.90;;;;;;5025204;28;20607;-75
2023/07/10 05:31:06;;;;;;;6.18;3.38;;;20.10;99.90;;;;;;5040465;28;20280;-77
2023/07/10 05:33:34;;;;;;;5.82;3.20;;;20.00;99.90;;;;;;5024344;28;20268;-77
2023/07/10 05:36:04;;;;;;;4.88;3.00;;;20.00;99.90;;;;;;5026298;28;20734;-77
2023/07/10 05:38:34;;;;;;;6.10;3.45;;;20.10;99.90;;;;;;5023041;28;20293;-77
2023/07/10 05:41:01;;;;;;;7.18;3.28;;;20.20;99.90;;;;;;5029960;28;20202;-76
2023/07/10 05:43:31;;;;;;;7.28;3.30;;;20.20;99.90;;;;;;5021841;28;20199;-77
2023/07/10 05:45:59;;;;;;;6.28;3.33;;;20.30;99.90;;;;;;5023387;28;20233;-76
2023/07/10 05:48:27;;;;;;;5.40;3.15;;;20.40;99.90;;;;;;5018716;28;20670;-76
2023/07/10 05:50:54;;;;;;;6.63;3.47;;;20.60;99.90;;;;;;5029270;28;20210;-76
2023/07/10 05:53:22;;;;;;;6.93;3.78;;;20.60;99.90;;;;;;5029402;28;20201;-75
2023/07/10 05:55:51;;;;;;;6.57;3.67;;;20.90;99.90;;;;;;5029705;28;20232;-76
2023/07/10 05:58:20;;;;;;;5.25;3.28;;;21.70;99.90;;;;;;5024812;28;20252;-77
2023/07/10 06:00:49;;;;;;;7.60;3.50;;;22.60;99.90;;;;;;5017981;28;20229;-77
2023/07/10 06:03:19;;;;;;;5.90;3.30;;;23.60;99.90;;;;;;5021204;28;20215;-76
2023/07/10 06:05:58;;;;;;;5.53;3.10;;;24.20;99.90;;;;;;5021195;28;20195;-77
2023/07/10 06:08:26;;;;;;;6.03;3.13;;;24.60;99.90;;;;;;5023158;28;20202;-77
2023/07/10 06:10:53;;;;;;;6.97;2.80;;;24.80;99.90;;;;;;5016546;28;20559;-76
2023/07/10 06:13:21;;;;;;;5.05;2.80;;;24.70;99.90;;;;;;5037064;28;20218;-78
2023/07/10 06:15:50;;;;;;;7.80;3.30;;;24.50;99.90;;;;;;5017574;28;20277;-77
2023/07/10 06:18:18;;;;;;;6.18;2.88;;;24.40;99.90;;;;;;5027268;28;20667;-75
2023/07/10 06:20:52;;;;;;;4.75;2.70;;;24.50;99.90;;;;;;5019515;28;20345;-76
2023/07/10 06:23:21;;;;;;;6.57;2.65;;;25.10;99.90;;;;;;5017716;28;20661;-77
2023/07/10 06:25:49;;;;;;;6.72;3.03;;;25.70;99.90;;;;;;5016343;28;20210;-76
2023/07/10 06:28:16;;;;;;;7.18;2.75;;;26.30;99.90;;;;;;5025025;28;20214;-77
2023/07/10 06:30:55;;;;;;;5.35;2.72;;;26.90;99.90;;;;;;5010591;28;20947;-76
2023/07/10 06:33:23;;;;;;;5.82;2.50;;;27.30;99.90;;;;;;5006086;28;20249;-77
2023/07/10 06:35:50;;;;;;;4.72;2.65;;;27.40;99.90;;;;;;5003526;28;20683;-75
2023/07/10 06:38:17;;;;;;;6.25;3.05;;;27.90;99.90;;;;;;5002514;28;20897;-77
2023/07/10 06:40:44;;;;;;;4.20;2.50;;;27.80;99.90;;;;;;5006855;28;20214;-77
2023/07/10 06:43:10;;;;;;;5.00;2.33;;;28.40;99.90;;;;;;5000958;28;20294;-78
2023/07/10 06:45:39;;;;;;;7.28;2.40;;;29.10;99.90;;;;;;5002916;28;20227;-76
2023/07/10 06:48:06;;;;;;;4.90;2.70;;;29.50;99.90;;;;;;5006051;28;20198;-78
2023/07/10 06:50:34;;;;;;;6.05;2.67;;;;;;;;;;5003695;28;20212;-77
2023/07/10 06:53:01;;;;;;;6.20;2.50;;;30.40;99.90;;;;;;5004125;28;20210;-75
2023/07/10 06:55:57;;;;;;;4.80;2.40;;;30.40;99.90;;;;;;5004270;28;20230;-76
2023/07/10 06:58:25;;;;;;;5.40;2.30;;;30.30;99.90;;;;;;5005108;28;20205;-76
2023/07/10 07:00:52;;;;;;;3.47;1.92;;;30.30;99.90;;;;;;5010293;28;20214;-76
2023/07/10 07:03:20;;;;;;;5.35;1.92;;;29.90;99.90;;;;;;5002888;28;20647;-78
2023/07/10 07:05:48;;;;;;;4.13;1.85;;;;;;;;;;5007220;28;20222;-77
2023/07/10 07:08:17;;;;;;;3.83;1.90;;;30.60;99.90;;;;;;5013092;28;20225;-78
2023/07/10 07:10:45;;;;;;;3.28;1.70;;;30.90;99.90;;;;;;5012978;28;20301;-77
2023/07/10 07:13:13;;;;;;;3.22;1.67;;;31.10;99.90;;;;;;5011632;28;20212;-78
2023/07/10 07:15:41;;;;;;;4.10;1.80;;;31.20;99.90;;;;;;5008420;28;20244;-78
2023/07/10 07:18:08;;;;;;;4.85;1.60;;;31.30;99.90;;;;;;5013508;28;20233;-77
2023/07/10 07:20:35;;;;;;;3.63;1.77;;;31.40;99.90;;;;;;5002152;28;20613;-78
2023/07/10 07:23:02;;;;;;;3.42;1.60;;;31.50;99.90;;;;;;5002897;28;20206;-77
2023/07/10 07:25:29;;;;;;;5.25;1.83;;;31.80;99.90;;;;;;5009540;28;20682;-76
2023/07/10 07:28:03;;;;;;;3.20;1.70;;;31.50;99.90;;;;;;5017237;28;20204;-79
2023/07/10 07:30:31;;;;;;;4.88;1.60;;;31.30;99.90;;;;;;5012169;28;20228;-77
2023/07/10 07:32:59;;;;;;;2.50;1.17;;;31.10;99.90;;;;;;5025162;28;20246;-77
2023/07/10 07:35:27;;;;;;;2.30;1.20;;;31.30;99.90;;;;;;5009478;28;20232;-77
2023/07/10 07:37:54;;;;;;;3.70;1.85;;;31.40;99.90;;;;;;5003993;28;20206;-77
2023/07/10 07:40:21;;;;;;;4.80;1.25;;;31.50;99.90;;;;;;4998852;28;20427;-77
2023/07/10 07:42:48;;;;;;;3.25;1.30;;;31.70;99.90;;;;;;4999060;28;20218;-78
2023/07/10 07:45:15;;;;;;;3.80;1.23;;;31.90;99.90;;;;;;5004622;28;20701;-76
2023/07/10 07:47:43;;;;;;;4.65;1.27;;;32.10;99.90;;;;;;5003716;28;20198;-78
2023/07/10 07:50:11;;;;;;;3.63;1.52;;;31.90;99.90;;;;;;5003301;28;20297;-77
2023/07/10 07:52:38;;;;;;;4.75;1.35;;;31.70;99.40;;;;;;5005093;28;20206;-77
2023/07/10 07:55:06;;;;;;;3.88;1.45;;;31.60;99.20;;;;;;5007110;28;20222;-79
2023/07/10 07:57:33;;;;;;;3.20;1.15;;;31.50;98.70;;;;;;5003837;28;20247;-78
2023/07/10 08:00:00;;;;;;;3.83;1.30;;;31.40;98.60;;;;;;4999592;28;20642;-78
2023/07/10 08:02:27;;;;;;;3.30;1.27;;;31.30;98.70;;;;;;5003872;28;20566;-78
2023/07/10 08:04:54;;;;;;;2.28;1.35;;;31.00;98.10;;;;;;5000861;28;20198;-78
2023/07/10 08:07:21;;;;;;;4.40;1.33;;;30.80;98.20;;;;;;5002245;28;20617;-76
2023/07/10 08:09:49;;;;;;;3.30;1.00;;;30.90;98.90;;;;;;5002544;28;20225;-78
2023/07/10 08:12:16;;;;;;;2.78;1.30;;;31.10;98.70;;;;;;5004460;28;20736;-77
2023/07/10 08:14:43;;;;;;;4.90;1.27;;;31.30;98.00;;;;;;4999736;28;20230;-80
2023/07/10 08:17:11;;;;;;;5.43;1.45;;;31.50;98.00;;;;;;5001131;28;20203;-77
2023/07/10 08:19:37;;;;;;;2.30;1.33;;;31.30;97.80;;;;;;5004419;28;20321;-77
2023/07/10 08:22:05;;;;;;;3.78;1.20;;;31.00;98.20;;;;;;5006862;28;20194;-78
2023/07/10 08:24:32;;;;;;;3.70;1.40;;;31.10;98.60;;;;;;5001361;28;20210;-78
2023/07/10 08:26:59;;;;;;;2.90;1.33;;;31.40;98.50;;;;;;5008122;28;20252;-78
2023/07/10 08:29:31;;;;;;;5.25;1.02;;;31.30;98.40;;;;;;5004235;28;20558;-76
2023/07/10 08:32:00;;;;;;;3.38;1.30;;;31.70;97.90;;;;;;5000762;28;20272;-77
2023/07/10 08:34:29;;;;;;;4.18;1.60;;;31.90;97.40;;;;;;5023555;28;20298;-79
2023/07/10 08:36:58;;;;;;;5.28;1.40;;;31.60;97.10;;;;;;5003550;28;20219;-76
2023/07/10 08:39:25;;;;;;;3.97;1.20;;;31.40;97.00;;;;;;5003471;28;20202;-76
2023/07/10 08:41:55;;;;;;;3.33;1.38;;;31.50;97.20;;;;;;5028472;28;20625;-80
2023/07/10 08:44:35;;;;;;;2.90;1.20;;;31.70;97.20;;;;;;5025540;28;20217;-78
2023/07/10 08:47:17;;;;;;;5.10;1.92;;;31.90;96.60;;;;;;5013750;28;20740;-79
2023/07/10 08:49:54;;;;;;;4.72;1.83;;;32.00;96.40;;;;;;5014862;28;20209;-78
2023/07/10 08:52:41;;;;;;;3.50;1.35;;;31.90;96.50;;;;;;5009651;28;20268;-76
2023/07/10 08:55:14;;;;;;;3.42;1.42;;;31.80;97.10;;;;;;5007466;28;20242;-77
2023/07/10 08:57:46;;;;;;;4.95;1.25;;;31.90;97.00;;;;;;5008345;28;20203;-79
2023/07/10 09:00:15;;;;;;;4.65;1.35;;;;;;;;;;5026890;28;20226;-78
2023/07/10 09:02:43;;;;;;;4.07;1.42;;;31.40;95.80;;;;;;5004117;28;20191;-78
2023/07/10 09:05:20;;;;;;;3.80;1.55;;;30.90;97.00;;;;;;5003969;28;20239;-78
2023/07/10 09:07:48;;;;;;;4.05;1.58;;;30.60;97.80;;;;;;5004451;28;20213;-77
2023/07/10 09:10:21;;;;;;;5.50;1.73;;;30.50;98.00;;;;;;5017944;28;20211;-76
2023/07/10 09:13:02;;;;;;;4.03;1.45;;;30.60;97.90;;;;;;5002739;28;20602;-76
2023/07/10 09:15:44;;;;;;;5.25;1.73;;;30.50;98.40;;;;;;5002919;28;20686;-81
2023/07/10 09:18:20;;;;;;;3.28;1.40;;;30.40;96.50;;;;;;5001729;28;20218;-80
2023/07/10 09:20:52;;;;;;;3.75;1.27;;;30.00;96.70;;;;;;5002108;28;20207;-77
2023/07/10 09:23:29;;;;;;;3.30;1.52;;;29.60;98.00;;;;;;5007117;28;20212;-79
2023/07/10 09:26:10;;;;;;;4.05;1.58;;;29.50;98.10;;;;;;5003615;28;20202;-78
2023/07/10 09:28:41;;;;;;;3.13;1.42;;;29.70;97.60;;;;;;5003768;28;20218;-79
2023/07/10 09:31:22;;;;;;;6.38;1.60;;;29.50;97.50;;;;;;5016269;28;20307;-78
2023/07/10 09:33:52;;;;;;;4.05;1.40;;;29.50;98.00;;;;;;5017189;28;20213;-79
2023/07/10 09:36:21;;;;;;;7.15;1.48;;;29.60;98.40;;;;;;5029082;28;20245;-78
2023/07/10 09:38:49;;;;;;;6.28;1.67;;;29.70;98.30;;;;;;5044663;28;20561;-80
2023/07/10 09:41:23;;;;;;;3.95;1.50;;;29.60;98.00;;;;;;5025570;28;20280;-81
2023/07/10 09:43:56;;;;;;;5.85;1.70;;;29.60;97.90;;;;;;5046941;28;20205;-77
2023/07/10 09:46:28;;;;;;;4.97;1.52;;;29.60;97.50;;;;;;5030592;28;20304;-75
2023/07/10 09:48:59;;;;;;;3.55;1.30;;;29.90;98.40;;;;;;5027717;28;20328;-78
2023/07/10 09:51:27;;;;;;;2.35;1.35;;;29.90;98.30;;;;;;5028293;28;20280;-78
2023/07/10 09:54:06;;;;;;;4.88;1.20;;;30.10;98.20;;;;;;5028719;28;20233;-78
2023/07/10 09:56:38;;;;;;;3.08;1.38;;;30.30;98.30;;;;;;5043935;28;20312;-78
2023/07/10 09:59:19;;;;;;;3.97;1.50;;;30.30;98.10;;;;;;5025998;28;20295;-80
2023/07/10 10:01:47;;;;;;;4.30;1.52;;;30.40;98.40;;;;;;5043924;28;20575;-78
2023/07/10 10:04:27;;;;;;;3.92;1.38;;;30.30;96.90;;;;;;5039216;28;20197;-78
2023/07/10 10:07:01;;;;;;;5.63;1.50;;;30.30;96.50;;;;;;5041542;28;20208;-78
2023/07/10 10:09:29;;;;;;;5.20;1.60;;;30.10;96.60;;;;;;5029622;28;20201;-82
2023/07/10 10:12:20;;;;;;;4.95;1.67;;;30.00;96.60;;;;;;5041711;28;20231;-78
2023/07/10 10:15:00;;;;;;;5.65;1.50;;;29.90;96.10;;;;;;5023848;28;20325;-78
2023/07/10 10:18:03;;;;;;;5.97;1.60;;;29.80;95.80;;;;;;5024790;28;20263;-83
2023/07/10 10:20:40;;;;;;;6.47;2.58;;;29.80;96.60;;;;;;5025173;28;20204;-81
2023/07/10 10:23:33;;;;;;;4.07;1.05;;;29.70;96.40;;;;;;5026349;28;20216;-78
2023/07/10 10:26:42;;;;;;;3.28;1.20;;;29.60;95.80;;;;;;5028120;28;20211;-80
2023/07/10 10:29:19;;;;;;;4.90;1.25;;;;;;;;;;5038173;28;20197;-79
2023/07/10 10:32:05;;;;;;;4.85;1.13;;;29.60;95.40;;;;;;5043377;28;20709;-78
2023/07/10 10:34:53;;;;;;;3.65;1.63;;;29.60;96.00;;;;;;5026599;28;20291;-77
2023/07/10 10:38:01;;;;;;;4.63;1.45;;;29.70;96.00;;;;;;5026258;28;20228;-78
2023/07/10 10:40:31;;;;;;;5.82;1.77;;;29.90;95.50;;;;;;5041077;28;20300;-80
2023/07/10 10:43:23;;;;;;;2.15;1.05;;;29.80;95.90;;;;;;5043086;28;20201;-79
2023/07/10 10:46:15;;;;;;;3.00;1.10;;;29.90;96.30;;;;;;5041088;28;20221;-80
2023/07/10 10:48:54;;;;;;;5.60;1.75;;;30.10;96.50;;;;;;5036256;28;20194;-78
2023/07/10 10:51:34;;;;;;;3.38;1.20;;;30.30;96.70;;;;;;5041840;28;20231;-79
2023/07/10 10:54:19;;;;;;;4.35;1.50;;;30.00;94.70;;;;;;5042782;28;20197;-79
2023/07/10 10:57:12;;;;;;;3.03;1.00;;;29.70;94.40;;;;;;5040035;28;20755;-78
2023/07/10 10:59:46;;;;;;;3.92;1.10;;;29.70;94.70;;;;;;5037052;28;20244;-79
2023/07/10 11:02:28;;;;;;;4.95;1.40;;;29.90;94.70;;;;;;5037290;28;20767;-78
2023/07/10 11:05:19;;;;;;;3.65;1.10;;;29.80;94.70;;;;;;5035365;28;20228;-79
2023/07/10 11:07:52;;;;;;;4.75;1.48;;;29.80;94.20;;;;;;5030593;28;20193;-79
2023/07/10 11:10:30;;;;;;;2.80;1.00;;;29.90;94.20;;;;;;5030062;28;20291;-79
2023/07/10 11:12:58;;;;;;;2.45;1.00;;;29.90;94.60;;;;;;5031792;28;20672;-81
2023/07/10 11:15:27;;;;;;;4.72;1.42;;;29.50;94.10;;;;;;5033471;28;20229;-80
2023/07/10 11:17:56;;;;;;;2.38;1.40;;;29.40;94.40;;;;;;5042487;28;20268;-76
2023/07/10 11:20:26;;;;;;;4.78;1.45;;;29.30;94.60;;;;;;5045219;28;20201;-80
2023/07/10 11:23:00;;;;;;;4.18;1.23;;;29.20;94.90;;;;;;5045674;28;20700;-78
2023/07/10 11:25:42;;;;;;;3.25;1.30;;;28.90;94.60;;;;;;5049884;28;20631;-77
2023/07/10 11:28:22;;;;;;;5.03;1.80;;;29.10;94.90;;;;;;5034847;28;20201;-82
2023/07/10 11:31:30;;;;;;;2.05;0.90;;;29.00;94.30;;;;;;5013505;28;20280;-80
2023/07/10 11:34:06;;;;;;;3.92;1.10;;;29.30;94.20;;;;;;5023282;28;20578;-77
2023/07/10 11:36:33;;;;;;;5.00;1.25;;;29.30;94.30;;;;;;5005879;28;20237;-81
2023/07/10 11:39:07;;;;;;;5.60;1.23;;;29.40;93.80;;;;;;5007709;28;20342;-78
2023/07/10 11:41:58;;;;;;;3.28;1.35;;;29.40;93.70;;;;;;5009879;28;20659;-79
2023/07/10 11:44:34;;;;;;;3.92;1.10;;;29.50;93.50;;;;;;5005462;28;20203;-79
2023/07/10 11:47:17;;;;;;;4.55;1.27;;;29.40;93.80;;;;;;5009276;28;20658;-77
2023/07/10 11:49:54;;;;;;;2.15;0.80;;;29.50;93.80;;;;;;5009179;28;20203;-78
2023/07/10 11:52:21;;;;;;;3.88;1.55;;;29.50;93.90;;;;;;5007773;28;20213;-77
2023/07/10 11:54:48;;;;;;;2.45;1.00;;;29.50;93.40;;;;;;5005604;28;20191;-79
2023/07/10 11:57:24;;;;;;;7.75;1.30;;;29.60;93.20;;;;;;5010991;28;20213;-81
2023/07/10 12:00:01;;;;;;;4.53;1.13;;;29.50;93.30;;;;;;5024179;28;20220;-77
2023/07/10 12:02:37;;;;;;;7.10;1.33;;;29.40;93.40;;;;;;5004056;28;20208;-77
2023/07/10 12:05:13;;;;;;;4.80;1.08;;;29.50;93.50;;;;;;5009700;28;20581;-77
2023/07/10 12:08:11;;;;;;;4.22;1.25;;;29.70;94.10;;;;;;5021904;28;20566;-78
2023/07/10 12:10:45;;;;;;;1.98;0.98;;;29.50;93.70;;;;;;5000900;28;20225;-81
2023/07/10 12:13:27;;;;;;;3.28;1.17;;;29.50;93.90;;;;;;5009495;28;20217;-78
2023/07/10 12:15:57;;;;;;;4.72;1.52;;;29.60;93.50;;;;;;5019210;28;20644;-78
2023/07/10 12:18:33;;;;;;;3.28;1.08;;;29.50;93.60;;;;;;5004111;28;20207;-78
2023/07/10 12:21:03;;;;;;;3.42;1.17;;;29.30;93.50;;;;;;5005039;28;20266;-81
2023/07/10 12:23:30;;;;;;;4.57;1.15;;;29.10;94.00;;;;;;5007432;28;20282;-81
2023/07/10 12:25:58;;;;;;;6.45;1.50;;;29.10;94.80;;;;;;5005910;28;20202;-81
2023/07/10 12:28:26;;;;;;;4.95;1.10;;;29.10;94.20;;;;;;5005405;28;20629;-78
2023/07/10 12:30:58;;;;;;;4.00;1.20;;;29.40;94.20;;;;;;5019090;28;20236;-79
2023/07/10 12:33:46;;;;;;;2.78;1.25;;;29.50;94.10;;;;;;5041115;28;20249;-80
2023/07/10 12:36:15;;;;;;;4.70;1.23;;;29.50;93.90;;;;;;5028409;28;20560;-79
2023/07/10 12:38:42;;;;;;;5.25;1.48;;;29.60;94.00;;;;;;5027275;28;20669;-78
2023/07/10 12:41:09;;;;;;;3.42;1.25;;;29.50;94.00;;;;;;5043100;28;20217;-79
2023/07/10 12:43:36;;;;;;;3.58;1.20;;;29.50;93.80;;;;;;5045981;28;20224;-77
2023/07/10 12:46:14;;;;;;;4.43;1.33;;;29.40;93.90;;;;;;5043561;28;20520;-77
2023/07/10 12:48:41;;;;;;;3.88;1.48;;;29.30;94.20;;;;;;5024844;28;20205;-78
2023/07/10 12:51:21;;;;;;;5.30;1.30;;;29.40;94.10;;;;;;5025545;28;20225;-78
2023/07/10 12:53:48;;;;;;;2.45;1.08;;;29.70;93.70;;;;;;5044274;28;20193;-77
2023/07/10 12:56:35;;;;;;;3.40;1.40;;;29.90;93.30;;;;;;5040318;28;20260;-78
2023/07/10 12:59:16;;;;;;;4.75;1.40;;;30.00;93.20;;;;;;5044391;28;20212;-76
2023/07/10 13:02:01;;;;;;;4.50;1.10;;;30.00;93.50;;;;;;5042217;28;20209;-78
2023/07/10 13:04:33;;;;;;;4.28;1.50;;;30.20;93.60;;;;;;5044761;28;20233;-77
2023/07/10 13:07:07;;;;;;;3.08;1.00;;;30.40;93.50;;;;;;5013785;28;20594;-77
2023/07/10 13:09:58;;;;;;;4.60;1.50;;;30.50;93.60;;;;;;5041339;28;20720;-78